sensor_id;sensor_type;location;lat;lon;timestamp;P1;P2;P0
54587;PMS7003;40484;50.198;19.576;2023-02-01T00:00:23;16;14;11
54587;PMS7003;40484;50.198;19.576;2023-02-01T00:05:26;14;14;8
54587;PMS7003;40484;50.198;19.576;2023-02-01T00:10:27;19;17;12
54587;PMS7003;40484;50.198;19.576;2023-02-01T00:15:29;15;15;11
54587;PMS7003;40484;50.198;19.576;2023-02-01T00:20:30;18;15;11
54587;PMS7003;40484;50.198;19.576;2023-02-01T00:25:32;18;17;13
54587;PMS7003;40484;50.198;19.576;2023-02-01T00:30:33;17;16;14
54587;PMS7003;40484;50.198;19.576;2023-02-01T00:35:35;17;16;12
54587;PMS7003;40484;50.198;19.576;2023-02-01T00:40:37;19;17;13
54587;PMS7003;40484;50.198;19.576;2023-02-01T00:45:38;22;20;11
54587;PMS7003;40484;50.198;19.576;2023-02-01T00:50:43;17;15;8
54587;PMS7003;40484;50.198;19.576;2023-02-01T00:55:45;22;21;15
54587;PMS7003;40484;50.198;19.576;2023-02-01T01:00:48;21;16;12
54587;PMS7003;40484;50.198;19.576;2023-02-01T01:05:50;23;17;10
54587;PMS7003;40484;50.198;19.576;2023-02-01T01:10:51;22;19;12
54587;PMS7003;40484;50.198;19.576;2023-02-01T01:15:53;12;12;8
54587;PMS7003;40484;50.198;19.576;2023-02-01T01:20:54;18;16;11
54587;PMS7003;40484;50.198;19.576;2023-02-01T01:26:22;16;13;9
54587;PMS7003;40484;50.198;19.576;2023-02-01T01:31:24;4;4;4
54587;PMS7003;40484;50.198;19.576;2023-02-01T01:36:26;15;12;6
54587;PMS7003;40484;50.198;19.576;2023-02-01T01:41:29;19;18;12
54587;PMS7003;40484;50.198;19.576;2023-02-01T01:46:32;15;13;9
54587;PMS7003;40484;50.198;19.576;2023-02-01T01:51:40;9;7;6
54587;PMS7003;40484;50.198;19.576;2023-02-01T01:56:45;7;5;4
54587;PMS7003;40484;50.198;19.576;2023-02-01T02:01:50;5;5;4
54587;PMS7003;40484;50.198;19.576;2023-02-01T02:12:14;2;2;2
54587;PMS7003;40484;50.198;19.576;2023-02-01T02:23:34;2;2;1
54587;PMS7003;40484;50.198;19.576;2023-02-01T02:34:03;10;9;8
54587;PMS7003;40484;50.198;19.576;2023-02-01T02:39:13;3;3;2
54587;PMS7003;40484;50.198;19.576;2023-02-01T02:44:21;5;3;3
54587;PMS7003;40484;50.198;19.576;2023-02-01T02:50:04;2;1;1
54587;PMS7003;40484;50.198;19.576;2023-02-01T02:56:17;1;1;1
54587;PMS7003;40484;50.198;19.576;2023-02-01T03:01:58;2;1;1
54587;PMS7003;40484;50.198;19.576;2023-02-01T03:13:03;5;4;3
54587;PMS7003;40484;50.198;19.576;2023-02-01T03:18:35;1;1;1
54587;PMS7003;40484;50.198;19.576;2023-02-01T03:23:42;2;2;2
54587;PMS7003;40484;50.198;19.576;2023-02-01T03:28:48;2;2;2
54587;PMS7003;40484;50.198;19.576;2023-02-01T03:33:52;2;2;2
54587;PMS7003;40484;50.198;19.576;2023-02-01T03:44:16;5;4;3
54587;PMS7003;40484;50.198;19.576;2023-02-01T03:49:26;6;6;6
54587;PMS7003;40484;50.198;19.576;2023-02-01T03:54:27;1;1;0
54587;PMS7003;40484;50.198;19.576;2023-02-01T03:59:30;4;4;3
54587;PMS7003;40484;50.198;19.576;2023-02-01T04:04:32;3;3;3
54587;PMS7003;40484;50.198;19.576;2023-02-01T04:09:35;3;2;2
54587;PMS7003;40484;50.198;19.576;2023-02-01T04:14:36;3;3;3
54587;PMS7003;40484;50.198;19.576;2023-02-01T04:19:38;4;4;2
54587;PMS7003;40484;50.198;19.576;2023-02-01T04:25:06;4;2;2
54587;PMS7003;40484;50.198;19.576;2023-02-01T04:30:08;3;3;2
54587;PMS7003;40484;50.198;19.576;2023-02-01T04:35:12;3;2;2
54587;PMS7003;40484;50.198;19.576;2023-02-01T04:40:14;3;3;2
54587;PMS7003;40484;50.198;19.576;2023-02-01T04:45:15;3;3;2
54587;PMS7003;40484;50.198;19.576;2023-02-01T04:50:17;11;8;6
54587;PMS7003;40484;50.198;19.576;2023-02-01T04:55:19;5;5;4
54587;PMS7003;40484;50.198;19.576;2023-02-01T05:00:20;12;11;8
54587;PMS7003;40484;50.198;19.576;2023-02-01T05:05:22;3;3;0
54587;PMS7003;40484;50.198;19.576;2023-02-01T05:10:24;4;4;4
54587;PMS7003;40484;50.198;19.576;2023-02-01T05:15:25;9;8;7
54587;PMS7003;40484;50.198;19.576;2023-02-01T05:20:27;5;5;4
54587;PMS7003;40484;50.198;19.576;2023-02-01T05:25:28;8;8;8
54587;PMS7003;40484;50.198;19.576;2023-02-01T05:30:30;13;11;9
54587;PMS7003;40484;50.198;19.576;2023-02-01T05:35:33;11;10;7
54587;PMS7003;40484;50.198;19.576;2023-02-01T05:40:34;16;12;10
54587;PMS7003;40484;50.198;19.576;2023-02-01T05:45:36;25;22;15
54587;PMS7003;40484;50.198;19.576;2023-02-01T05:50:37;19;15;10
54587;PMS7003;40484;50.198;19.576;2023-02-01T05:55:39;26;22;14
54587;PMS7003;40484;50.198;19.576;2023-02-01T06:00:41;11;10;7
54587;PMS7003;40484;50.198;19.576;2023-02-01T06:05:45;20;18;12
54587;PMS7003;40484;50.198;19.576;2023-02-01T06:11:12;14;14;8
54587;PMS7003;40484;50.198;19.576;2023-02-01T06:16:14;21;18;11
54587;PMS7003;40484;50.198;19.576;2023-02-01T06:21:16;15;14;9
54587;PMS7003;40484;50.198;19.576;2023-02-01T06:26:19;13;13;9
54587;PMS7003;40484;50.198;19.576;2023-02-01T06:31:21;29;26;15
54587;PMS7003;40484;50.198;19.576;2023-02-01T06:36:23;20;17;13
54587;PMS7003;40484;50.198;19.576;2023-02-01T06:41:25;14;13;10
54587;PMS7003;40484;50.198;19.576;2023-02-01T06:46:27;15;13;12
54587;PMS7003;40484;50.198;19.576;2023-02-01T06:51:29;10;10;8
54587;PMS7003;40484;50.198;19.576;2023-02-01T06:56:30;13;10;8
54587;PMS7003;40484;50.198;19.576;2023-02-01T07:01:32;1;1;1
54587;PMS7003;40484;50.198;19.576;2023-02-01T07:06:34;9;8;7
54587;PMS7003;40484;50.198;19.576;2023-02-01T07:11:35;13;10;8
54587;PMS7003;40484;50.198;19.576;2023-02-01T07:16:39;49;41;29
54587;PMS7003;40484;50.198;19.576;2023-02-01T07:21:40;16;15;13
54587;PMS7003;40484;50.198;19.576;2023-02-01T07:26:42;22;18;12
54587;PMS7003;40484;50.198;19.576;2023-02-01T07:31:44;34;32;20
54587;PMS7003;40484;50.198;19.576;2023-02-01T07:36:46;30;27;14
54587;PMS7003;40484;50.198;19.576;2023-02-01T07:41:47;31;25;17
54587;PMS7003;40484;50.198;19.576;2023-02-01T07:46:49;45;36;20
54587;PMS7003;40484;50.198;19.576;2023-02-01T07:51:51;43;35;22
54587;PMS7003;40484;50.198;19.576;2023-02-01T07:57:17;41;31;20
54587;PMS7003;40484;50.198;19.576;2023-02-01T11:09:48;19;18;12
54587;PMS7003;40484;50.198;19.576;2023-02-01T11:14:51;60;45;29
54587;PMS7003;40484;50.198;19.576;2023-02-01T11:19:58;22;21;14
54587;PMS7003;40484;50.198;19.576;2023-02-01T11:25:07;14;13;8
54587;PMS7003;40484;50.198;19.576;2023-02-01T11:30:14;29;20;12
54587;PMS7003;40484;50.198;19.576;2023-02-01T11:35:20;15;15;11
54587;PMS7003;40484;50.198;19.576;2023-02-01T11:40:23;36;27;17
54587;PMS7003;40484;50.198;19.576;2023-02-01T11:45:29;10;9;7
54587;PMS7003;40484;50.198;19.576;2023-02-01T11:50:45;25;22;15
54587;PMS7003;40484;50.198;19.576;2023-02-01T12:11:58;19;17;12
54587;PMS7003;40484;50.198;19.576;2023-02-01T12:22:21;32;22;14
54587;PMS7003;40484;50.198;19.576;2023-02-01T12:32:43;11;11;10
54587;PMS7003;40484;50.198;19.576;2023-02-01T12:38:03;16;15;9
54587;PMS7003;40484;50.198;19.576;2023-02-01T12:43:36;15;13;9
54587;PMS7003;40484;50.198;19.576;2023-02-01T12:53:51;18;16;10
54587;PMS7003;40484;50.198;19.576;2023-02-01T12:58:57;16;12;5
54587;PMS7003;40484;50.198;19.576;2023-02-01T13:14:33;25;23;13
54587;PMS7003;40484;50.198;19.576;2023-02-01T13:19:49;20;18;9
54587;PMS7003;40484;50.198;19.576;2023-02-01T13:25:35;40;34;16
54587;PMS7003;40484;50.198;19.576;2023-02-01T13:36:03;33;31;20
54587;PMS7003;40484;50.198;19.576;2023-02-01T13:46:28;42;33;20
54587;PMS7003;40484;50.198;19.576;2023-02-01T13:51:42;29;24;14
54587;PMS7003;40484;50.198;19.576;2023-02-01T13:56:44;48;39;23
54587;PMS7003;40484;50.198;19.576;2023-02-01T14:01:45;20;20;13
54587;PMS7003;40484;50.198;19.576;2023-02-01T14:06:47;56;42;23
54587;PMS7003;40484;50.198;19.576;2023-02-01T14:17:47;34;31;17
54587;PMS7003;40484;50.198;19.576;2023-02-01T14:22:48;31;26;15
54587;PMS7003;40484;50.198;19.576;2023-02-01T14:27:50;38;32;22
54587;PMS7003;40484;50.198;19.576;2023-02-01T14:32:53;26;25;17
54587;PMS7003;40484;50.198;19.576;2023-02-01T14:37:59;20;17;12
54587;PMS7003;40484;50.198;19.576;2023-02-01T14:43:07;20;18;13
54587;PMS7003;40484;50.198;19.576;2023-02-01T14:58:35;24;20;13
54587;PMS7003;40484;50.198;19.576;2023-02-01T15:04:18;29;21;14
54587;PMS7003;40484;50.198;19.576;2023-02-01T15:09:32;30;21;14
54587;PMS7003;40484;50.198;19.576;2023-02-01T15:14:47;17;14;10
54587;PMS7003;40484;50.198;19.576;2023-02-01T15:20:03;31;24;15
54587;PMS7003;40484;50.198;19.576;2023-02-01T15:25:02;12;11;7
54587;PMS7003;40484;50.198;19.576;2023-02-01T15:30:05;31;27;17
54587;PMS7003;40484;50.198;19.576;2023-02-01T15:40:32;27;23;15
54587;PMS7003;40484;50.198;19.576;2023-02-01T15:45:34;19;18;10
54587;PMS7003;40484;50.198;19.576;2023-02-01T15:50:36;28;25;16
54587;PMS7003;40484;50.198;19.576;2023-02-01T15:56:06;24;21;11
54587;PMS7003;40484;50.198;19.576;2023-02-01T16:01:10;16;15;12
54587;PMS7003;40484;50.198;19.576;2023-02-01T16:06:12;36;33;23
54587;PMS7003;40484;50.198;19.576;2023-02-01T16:11:27;26;25;13
54587;PMS7003;40484;50.198;19.576;2023-02-01T16:16:33;19;17;8
54587;PMS7003;40484;50.198;19.576;2023-02-01T16:21:34;24;21;16
54587;PMS7003;40484;50.198;19.576;2023-02-01T16:26:36;21;19;12
54587;PMS7003;40484;50.198;19.576;2023-02-01T16:31:38;22;21;15
54587;PMS7003;40484;50.198;19.576;2023-02-01T16:36:40;12;12;12
54587;PMS7003;40484;50.198;19.576;2023-02-01T16:41:42;33;26;18
54587;PMS7003;40484;50.198;19.576;2023-02-01T16:46:44;29;25;13
54587;PMS7003;40484;50.198;19.576;2023-02-01T16:51:48;18;18;14
54587;PMS7003;40484;50.198;19.576;2023-02-01T16:56:50;33;30;18
54587;PMS7003;40484;50.198;19.576;2023-02-01T17:01:52;22;18;13
54587;PMS7003;40484;50.198;19.576;2023-02-01T17:06:54;34;32;20
54587;PMS7003;40484;50.198;19.576;2023-02-01T17:11:55;39;31;21
54587;PMS7003;40484;50.198;19.576;2023-02-01T17:16:57;29;25;18
54587;PMS7003;40484;50.198;19.576;2023-02-01T17:22:26;21;19;16
54587;PMS7003;40484;50.198;19.576;2023-02-01T17:27:27;22;20;14
54587;PMS7003;40484;50.198;19.576;2023-02-01T17:32:31;34;29;21
54587;PMS7003;40484;50.198;19.576;2023-02-01T17:37:33;25;25;16
54587;PMS7003;40484;50.198;19.576;2023-02-01T17:42:36;38;33;20
54587;PMS7003;40484;50.198;19.576;2023-02-01T17:47:38;35;30;20
54587;PMS7003;40484;50.198;19.576;2023-02-01T17:52:40;35;30;19
54587;PMS7003;40484;50.198;19.576;2023-02-01T17:57:41;32;26;17
54587;PMS7003;40484;50.198;19.576;2023-02-01T18:02:43;25;23;14
54587;PMS7003;40484;50.198;19.576;2023-02-01T18:07:45;34;31;23
54587;PMS7003;40484;50.198;19.576;2023-02-01T18:12:46;50;38;24
54587;PMS7003;40484;50.198;19.576;2023-02-01T18:17:49;31;30;21
54587;PMS7003;40484;50.198;19.576;2023-02-01T18:22:51;36;28;16
54587;PMS7003;40484;50.198;19.576;2023-02-01T18:27:53;28;24;15
54587;PMS7003;40484;50.198;19.576;2023-02-01T18:32:59;48;38;24
54587;PMS7003;40484;50.198;19.576;2023-02-01T18:37:59;30;25;15
54587;PMS7003;40484;50.198;19.576;2023-02-01T18:43:01;37;32;22
54587;PMS7003;40484;50.198;19.576;2023-02-01T18:48:03;29;26;18
54587;PMS7003;40484;50.198;19.576;2023-02-01T18:53:07;34;29;19
54587;PMS7003;40484;50.198;19.576;2023-02-01T18:58:10;28;27;19
54587;PMS7003;40484;50.198;19.576;2023-02-01T19:03:37;31;27;20
54587;PMS7003;40484;50.198;19.576;2023-02-01T19:08:39;32;31;20
54587;PMS7003;40484;50.198;19.576;2023-02-01T19:13:41;43;34;20
54587;PMS7003;40484;50.198;19.576;2023-02-01T19:18:43;46;38;24
54587;PMS7003;40484;50.198;19.576;2023-02-01T19:23:44;35;31;19
54587;PMS7003;40484;50.198;19.576;2023-02-01T19:28:46;63;50;30
54587;PMS7003;40484;50.198;19.576;2023-02-01T19:33:48;55;44;28
54587;PMS7003;40484;50.198;19.576;2023-02-01T19:38:50;24;21;13
54587;PMS7003;40484;50.198;19.576;2023-02-01T19:43:51;25;23;16
54587;PMS7003;40484;50.198;19.576;2023-02-01T19:48:53;33;30;19
54587;PMS7003;40484;50.198;19.576;2023-02-01T19:53:55;36;31;20
54587;PMS7003;40484;50.198;19.576;2023-02-01T19:58:57;45;37;23
54587;PMS7003;40484;50.198;19.576;2023-02-01T20:03:59;22;22;17
54587;PMS7003;40484;50.198;19.576;2023-02-01T20:09:05;18;18;12
54587;PMS7003;40484;50.198;19.576;2023-02-01T20:14:07;19;18;14
54587;PMS7003;40484;50.198;19.576;2023-02-01T20:19:10;25;22;13
54587;PMS7003;40484;50.198;19.576;2023-02-01T20:24:13;28;24;18
54587;PMS7003;40484;50.198;19.576;2023-02-01T20:29:15;35;26;18
54587;PMS7003;40484;50.198;19.576;2023-02-01T20:34:20;40;34;19
54587;PMS7003;40484;50.198;19.576;2023-02-01T20:39:49;51;38;24
54587;PMS7003;40484;50.198;19.576;2023-02-01T20:44:50;34;31;21
54587;PMS7003;40484;50.198;19.576;2023-02-01T20:49:52;43;37;23
54587;PMS7003;40484;50.198;19.576;2023-02-01T20:54:54;23;21;14
54587;PMS7003;40484;50.198;19.576;2023-02-01T20:59:55;23;22;16
54587;PMS7003;40484;50.198;19.576;2023-02-01T21:04:57;29;26;20
54587;PMS7003;40484;50.198;19.576;2023-02-01T21:09:59;28;25;18
54587;PMS7003;40484;50.198;19.576;2023-02-01T21:15:00;30;28;17
54587;PMS7003;40484;50.198;19.576;2023-02-01T21:20:05;19;19;12
54587;PMS7003;40484;50.198;19.576;2023-02-01T21:25:09;26;22;11
54587;PMS7003;40484;50.198;19.576;2023-02-01T21:30:11;39;33;20
54587;PMS7003;40484;50.198;19.576;2023-02-01T21:35:13;27;24;16
54587;PMS7003;40484;50.198;19.576;2023-02-01T21:40:15;24;23;17
54587;PMS7003;40484;50.198;19.576;2023-02-01T21:45:16;17;14;10
54587;PMS7003;40484;50.198;19.576;2023-02-01T21:50:18;23;21;15
54587;PMS7003;40484;50.198;19.576;2023-02-01T21:55:21;17;16;11
54587;PMS7003;40484;50.198;19.576;2023-02-01T22:00:22;14;12;9
54587;PMS7003;40484;50.198;19.576;2023-02-01T22:05:24;14;10;7
54587;PMS7003;40484;50.198;19.576;2023-02-01T22:10:26;12;10;9
54587;PMS7003;40484;50.198;19.576;2023-02-01T22:15:28;17;14;11
54587;PMS7003;40484;50.198;19.576;2023-02-01T22:20:57;19;17;12
54587;PMS7003;40484;50.198;19.576;2023-02-01T22:26:04;15;13;9
54587;PMS7003;40484;50.198;19.576;2023-02-01T22:31:09;14;13;10
54587;PMS7003;40484;50.198;19.576;2023-02-01T22:36:10;10;10;7
54587;PMS7003;40484;50.198;19.576;2023-02-01T22:41:13;11;11;10
54587;PMS7003;40484;50.198;19.576;2023-02-01T22:46:17;7;6;5
54587;PMS7003;40484;50.198;19.576;2023-02-01T22:51:19;16;13;9
54587;PMS7003;40484;50.198;19.576;2023-02-01T22:56:26;11;11;9
54587;PMS7003;40484;50.198;19.576;2023-02-01T23:01:25;11;9;7
54587;PMS7003;40484;50.198;19.576;2023-02-01T23:06:28;13;11;9
54587;PMS7003;40484;50.198;19.576;2023-02-01T23:11:30;12;12;8
54587;PMS7003;40484;50.198;19.576;2023-02-01T23:16:32;13;11;6
54587;PMS7003;40484;50.198;19.576;2023-02-01T23:21:34;9;9;7
54587;PMS7003;40484;50.198;19.576;2023-02-01T23:26:36;8;7;7
54587;PMS7003;40484;50.198;19.576;2023-02-01T23:31:38;10;10;8
54587;PMS7003;40484;50.198;19.576;2023-02-01T23:36:39;7;7;5
54587;PMS7003;40484;50.198;19.576;2023-02-01T23:41:41;11;10;9
54587;PMS7003;40484;50.198;19.576;2023-02-01T23:46:42;8;8;7
54587;PMS7003;40484;50.198;19.576;2023-02-01T23:52:13;6;6;5
54587;PMS7003;40484;50.198;19.576;2023-02-01T23:57:14;6;6;6
